createdAt,value
2019-06-08T00:00:56.599Z,1006.54
2019-06-08T00:01:56.545Z,1006.55
2019-06-08T00:02:56.536Z,1006.53
2019-06-08T00:03:56.526Z,1006.54
2019-06-08T00:04:56.509Z,1006.58
2019-06-08T00:05:56.566Z,1006.61
2019-06-08T00:06:56.489Z,1006.65
2019-06-08T00:07:56.483Z,1006.61
2019-06-08T00:08:56.468Z,1006.65
2019-06-08T00:09:56.468Z,1006.61
2019-06-08T00:10:56.445Z,1006.55
2019-06-08T00:11:56.477Z,1006.58
2019-06-08T00:12:56.430Z,1006.54
2019-06-08T00:13:56.412Z,1006.57
2019-06-08T00:14:56.412Z,1006.59
2019-06-08T00:15:56.397Z,1006.60
2019-06-08T00:16:56.387Z,1006.63
2019-06-08T00:17:59.247Z,1006.68
2019-06-08T00:18:56.405Z,1006.75
2019-06-08T00:19:56.413Z,1006.81
2019-06-08T00:20:56.340Z,1006.83
2019-06-08T00:21:56.395Z,1006.79
2019-06-08T00:22:56.321Z,1006.66
2019-06-08T00:23:56.318Z,1006.64
2019-06-08T00:24:56.362Z,1006.56
2019-06-08T00:25:56.298Z,1006.58
2019-06-08T00:26:56.287Z,1006.65
2019-06-08T00:27:56.265Z,1006.76
2019-06-08T00:28:56.262Z,1006.77
2019-06-08T00:29:56.274Z,1006.75
2019-06-08T00:30:56.245Z,1006.69
2019-06-08T00:31:56.224Z,1006.73
2019-06-08T00:32:56.256Z,1006.75
2019-06-08T00:33:56.223Z,1006.85
2019-06-08T00:34:56.200Z,1006.85
2019-06-08T00:35:56.186Z,1006.87
2019-06-08T00:36:56.174Z,1006.91
2019-06-08T00:37:56.241Z,1006.86
2019-06-08T00:38:56.208Z,1006.91
2019-06-08T00:39:56.200Z,1006.93
2019-06-08T00:40:56.146Z,1006.96
2019-06-08T00:41:56.128Z,1007.00
2019-06-08T00:42:56.123Z,1007.05
2019-06-08T00:43:56.120Z,1007.03
2019-06-08T00:44:56.087Z,1007.12
2019-06-08T00:45:56.080Z,1007.14
2019-06-08T00:46:56.084Z,1007.11
2019-06-08T00:47:56.057Z,1007.13
2019-06-08T00:48:56.101Z,1007.18
2019-06-08T00:49:56.033Z,1007.18
2019-06-08T00:50:56.023Z,1007.20
2019-06-08T00:51:56.018Z,1007.27
2019-06-08T00:52:56.002Z,1007.24
2019-06-08T00:53:56.018Z,1007.27
2019-06-08T00:54:55.991Z,1007.29
2019-06-08T00:55:55.977Z,1007.33
2019-06-08T00:56:55.963Z,1007.39
2019-06-08T00:57:55.995Z,1007.36
2019-06-08T00:58:55.979Z,1007.39
2019-06-08T00:59:55.931Z,1007.40
2019-06-08T01:00:55.919Z,1007.36
2019-06-08T01:01:55.914Z,1007.42
2019-06-08T01:02:55.932Z,1007.48
2019-06-08T01:03:55.934Z,1007.43
2019-06-08T01:04:55.897Z,1007.43
2019-06-08T01:05:55.866Z,1007.52
2019-06-08T01:06:55.893Z,1007.49
2019-06-08T01:07:55.852Z,1007.45
2019-06-08T01:08:55.845Z,1007.47
2019-06-08T01:09:55.844Z,1007.48
2019-06-08T01:10:55.818Z,1007.58
2019-06-08T01:11:55.811Z,1007.61
2019-06-08T01:12:55.809Z,1007.57
2019-06-08T01:13:55.808Z,1007.63
2019-06-08T01:14:55.812Z,1007.60
2019-06-08T01:15:55.775Z,1007.62
2019-06-08T01:16:55.749Z,1007.65
2019-06-08T01:18:02.868Z,1007.62
2019-06-08T01:18:56.735Z,1007.67
2019-06-08T01:19:55.731Z,1007.74
2019-06-08T01:20:55.755Z,1007.71
2019-06-08T01:21:55.699Z,1007.72
2019-06-08T01:22:55.687Z,1007.69
2019-06-08T01:23:55.683Z,1007.67
2019-06-08T01:24:55.673Z,1007.70
2019-06-08T01:25:55.709Z,1007.72
2019-06-08T01:26:55.665Z,1007.72
2019-06-08T01:27:55.637Z,1007.76
2019-06-08T01:28:55.627Z,1007.74
2019-06-08T01:29:55.613Z,1007.73
2019-06-08T01:30:55.603Z,1007.80
2019-06-08T01:31:55.626Z,1007.88
2019-06-08T01:32:55.581Z,1007.81
2019-06-08T01:33:55.573Z,1007.84
2019-06-08T01:34:55.564Z,1007.87
2019-06-08T01:35:55.567Z,1008.00
2019-06-08T01:36:55.574Z,1007.94
2019-06-08T01:37:55.527Z,1008.00
2019-06-08T01:38:55.541Z,1007.98
2019-06-08T01:39:55.509Z,1008.01
2019-06-08T01:40:55.495Z,1008.10
2019-06-08T01:41:55.490Z,1008.08
2019-06-08T01:42:55.508Z,1008.20
2019-06-08T01:43:55.474Z,1008.16
2019-06-08T01:44:55.454Z,1008.13
2019-06-08T01:45:55.456Z,1008.15
2019-06-08T01:46:55.438Z,1008.23
2019-06-08T01:47:55.424Z,1008.22
2019-06-08T01:48:55.440Z,1008.30
2019-06-08T01:49:55.400Z,1008.30
2019-06-08T01:50:55.392Z,1008.28
2019-06-08T01:51:55.385Z,1008.29
2019-06-08T01:52:55.372Z,1008.36
2019-06-08T01:53:55.385Z,1008.40
2019-06-08T01:54:55.348Z,1008.39
2019-06-08T01:55:55.347Z,1008.48
2019-06-08T01:56:55.373Z,1008.47
2019-06-08T01:57:55.317Z,1008.50
2019-06-08T01:58:55.307Z,1008.66
2019-06-08T01:59:55.303Z,1008.69
2019-06-08T02:00:55.309Z,1008.64
2019-06-08T02:01:55.318Z,1008.83
2019-06-08T02:02:55.267Z,1008.77
2019-06-08T02:03:55.254Z,1008.78
2019-06-08T02:04:55.243Z,1008.77
2019-06-08T02:05:55.239Z,1008.77
2019-06-08T02:06:55.244Z,1008.72
2019-06-08T02:07:55.258Z,1008.79
2019-06-08T02:08:55.201Z,1008.81
2019-06-08T02:09:55.236Z,1008.90
2019-06-08T02:10:55.183Z,1008.89
2019-06-08T02:11:55.179Z,1008.88
2019-06-08T02:12:55.162Z,1008.97
2019-06-08T02:13:55.152Z,1008.89
2019-06-08T02:14:55.144Z,1009.00
2019-06-08T02:15:55.160Z,1009.08
2019-06-08T02:16:55.123Z,1009.11
2019-06-08T02:17:55.131Z,1009.12
2019-06-08T02:18:55.102Z,1009.20
2019-06-08T02:19:55.098Z,1009.23
2019-06-08T02:20:55.076Z,1009.11
2019-06-08T02:21:55.063Z,1009.29
2019-06-08T02:22:55.098Z,1009.27
2019-06-08T02:23:55.050Z,1009.33
2019-06-08T02:24:55.035Z,1009.44
2019-06-08T02:25:55.031Z,1009.40
2019-06-08T02:26:55.105Z,1009.43
2019-06-08T02:27:55.002Z,1009.48
2019-06-08T02:28:54.997Z,1009.73
2019-06-08T02:29:54.980Z,1009.45
2019-06-08T02:30:54.974Z,1009.48
2019-06-08T02:31:55.005Z,1009.48
2019-06-08T02:32:54.949Z,1009.56
2019-06-08T02:33:54.988Z,1009.62
2019-06-08T02:34:54.928Z,1009.71
2019-06-08T02:35:54.924Z,1009.72
2019-06-08T02:36:54.911Z,1009.73
2019-06-08T02:37:54.908Z,1009.80
2019-06-08T02:38:54.909Z,1009.74
2019-06-08T02:39:54.923Z,1009.72
2019-06-08T02:40:54.864Z,1009.73
2019-06-08T02:41:54.856Z,1009.68
2019-06-08T02:42:54.851Z,1009.81
2019-06-08T02:43:54.871Z,1009.79
2019-06-08T02:44:54.830Z,1009.74
2019-06-08T02:45:54.816Z,1009.70
2019-06-08T02:46:54.805Z,1009.74
2019-06-08T02:47:54.804Z,1009.66
2019-06-08T02:49:04.142Z,1009.73
2019-06-08T02:49:55.806Z,1009.73
2019-06-08T02:50:54.768Z,1009.78
2019-06-08T02:51:54.754Z,1009.84
2019-06-08T02:52:54.740Z,1009.80
2019-06-08T02:53:54.742Z,1009.73
2019-06-08T02:54:54.751Z,1009.74
2019-06-08T02:55:54.714Z,1009.81
2019-06-08T02:56:54.693Z,1009.83
2019-06-08T02:57:54.687Z,1009.89
2019-06-08T02:58:54.679Z,1009.99
2019-06-08T02:59:54.704Z,1009.99
2019-06-08T03:00:54.655Z,1010.04
2019-06-08T03:01:54.673Z,1010.01
2019-06-08T03:02:54.633Z,1010.05
2019-06-08T03:03:54.624Z,1010.03
2019-06-08T03:04:54.645Z,1010.09
2019-06-08T03:05:54.602Z,1010.16
2019-06-08T03:06:54.603Z,1010.13
2019-06-08T03:07:54.583Z,1010.10
2019-06-08T03:08:54.571Z,1010.10
2019-06-08T03:09:54.564Z,1010.08
2019-06-08T03:10:54.578Z,1010.13
2019-06-08T03:11:54.539Z,1010.21
2019-06-08T03:12:54.523Z,1010.20
2019-06-08T03:13:54.514Z,1010.17
2019-06-08T03:14:54.542Z,1010.20
2019-06-08T03:15:54.547Z,1010.20
2019-06-08T03:16:54.478Z,1010.14
2019-06-08T03:17:54.470Z,1010.11
2019-06-08T03:18:54.458Z,1010.06
2019-06-08T03:19:54.450Z,1010.05
2019-06-08T03:20:54.457Z,1010.05
2019-06-08T03:21:54.426Z,1010.08
2019-06-08T03:22:54.415Z,1010.12
2019-06-08T03:23:54.404Z,1010.06
2019-06-08T03:24:54.395Z,1010.10
2019-06-08T03:25:54.442Z,1010.13
2019-06-08T03:26:54.369Z,1010.15
2019-06-08T03:27:54.417Z,1010.21
2019-06-08T03:28:54.357Z,1010.15
2019-06-08T03:29:54.342Z,1010.15
2019-06-08T03:30:55.290Z,1010.18
2019-06-08T03:31:56.920Z,1010.27
2019-06-08T03:32:56.738Z,1010.30
2019-06-08T03:33:56.496Z,1010.20
2019-06-08T03:34:56.681Z,1010.15
2019-06-08T03:35:57.950Z,1010.15
2019-06-08T03:36:57.088Z,1010.19
2019-06-08T03:37:54.251Z,1010.23
2019-06-08T03:38:54.247Z,1010.31
2019-06-08T03:39:54.258Z,1010.24
2019-06-08T03:40:54.220Z,1010.05
2019-06-08T03:41:54.255Z,1009.97
2019-06-08T03:42:55.946Z,1009.91
2019-06-08T03:43:54.210Z,1009.94
2019-06-08T03:44:54.176Z,1009.94
2019-06-08T03:45:54.172Z,1009.97
2019-06-08T03:46:54.232Z,1010.06
2019-06-08T03:47:54.196Z,1010.05
2019-06-08T03:48:54.136Z,1010.01
2019-06-08T03:49:57.440Z,1010.03
2019-06-08T03:50:54.118Z,1009.89
2019-06-08T03:51:54.114Z,1009.87
2019-06-08T03:52:54.134Z,1009.87
2019-06-08T03:53:54.086Z,1009.92
2019-06-08T03:54:54.107Z,1009.94
2019-06-08T03:55:54.065Z,1009.95
2019-06-08T03:56:54.053Z,1009.94
2019-06-08T03:57:54.089Z,1009.91
2019-06-08T03:58:54.033Z,1009.92
2019-06-08T03:59:54.059Z,1010.03
2019-06-08T04:00:54.009Z,1010.04
2019-06-08T04:01:54.001Z,1010.04
2019-06-08T04:02:54.039Z,1009.98
2019-06-08T04:03:53.974Z,1009.96
2019-06-08T04:04:53.961Z,1010.04
2019-06-08T04:05:53.957Z,1010.13
2019-06-08T04:06:53.947Z,1010.16
2019-06-08T04:07:53.972Z,1010.13
2019-06-08T04:08:53.918Z,1010.10
2019-06-08T04:09:53.921Z,1010.07
2019-06-08T04:10:53.964Z,1010.07
2019-06-08T04:11:53.891Z,1010.10
2019-06-08T04:12:53.883Z,1010.08
2019-06-08T04:13:53.871Z,1010.02
2019-06-08T04:14:53.860Z,1010.01
2019-06-08T04:15:53.852Z,1010.02
2019-06-08T04:16:53.875Z,1010.04
2019-06-08T04:17:53.842Z,1010.07
2019-06-08T04:18:53.852Z,1010.00
2019-06-08T04:20:09.598Z,1009.92
2019-06-08T04:20:54.789Z,1009.91
2019-06-08T04:21:53.783Z,1009.94
2019-06-08T04:22:53.795Z,1010.01
2019-06-08T04:23:53.784Z,1010.00
2019-06-08T04:24:53.745Z,1009.93
2019-06-08T04:25:53.737Z,1009.92
2019-06-08T04:26:53.727Z,1009.95
2019-06-08T04:27:53.721Z,1010.02
2019-06-08T04:28:53.750Z,1010.13
2019-06-08T04:29:53.692Z,1010.24
2019-06-08T04:30:53.688Z,1010.44
2019-06-08T04:31:53.680Z,1010.59
2019-06-08T04:32:53.672Z,1010.66
2019-06-08T04:33:53.663Z,1010.79
2019-06-08T04:34:53.670Z,1010.90
2019-06-08T04:35:53.628Z,1010.92
2019-06-08T04:36:53.618Z,1010.78
2019-06-08T04:37:53.614Z,1010.89
2019-06-08T04:38:53.594Z,1010.89
2019-06-08T04:39:53.633Z,1010.86
2019-06-08T04:40:53.580Z,1010.80
2019-06-08T04:41:53.562Z,1010.72
2019-06-08T04:42:53.561Z,1010.65
2019-06-08T04:43:53.541Z,1010.69
2019-06-08T04:44:53.540Z,1010.78
2019-06-08T04:45:53.568Z,1010.83
2019-06-08T04:46:53.520Z,1010.86
2019-06-08T04:47:53.499Z,1010.83
2019-06-08T04:48:53.495Z,1010.89
2019-06-08T04:49:53.486Z,1010.89
2019-06-08T04:50:53.469Z,1010.98
2019-06-08T04:51:53.484Z,1011.07
2019-06-08T04:52:53.451Z,1011.06
2019-06-08T04:53:53.440Z,1011.12
2019-06-08T04:54:53.430Z,1011.14
2019-06-08T04:55:53.451Z,1011.11
2019-06-08T04:56:53.410Z,1011.09
2019-06-08T04:57:53.397Z,1011.08
2019-06-08T04:58:53.394Z,1011.15
2019-06-08T04:59:53.378Z,1011.12
2019-06-08T05:00:53.393Z,1011.15
2019-06-08T05:01:53.360Z,1011.18
2019-06-08T05:02:53.345Z,1011.12
2019-06-08T05:03:53.343Z,1011.13
2019-06-08T05:04:53.325Z,1011.17
2019-06-08T05:05:53.339Z,1011.20
2019-06-08T05:06:53.297Z,1011.18
2019-06-08T05:07:53.288Z,1011.20
2019-06-08T05:08:53.285Z,1011.20
2019-06-08T05:09:53.264Z,1011.20
2019-06-08T05:10:53.299Z,1011.25
2019-06-08T05:11:53.243Z,1011.32
2019-06-08T05:12:53.241Z,1011.35
2019-06-08T05:13:53.222Z,1011.44
2019-06-08T05:14:53.215Z,1011.48
2019-06-08T05:15:53.207Z,1011.49
2019-06-08T05:16:53.216Z,1011.57
2019-06-08T05:17:53.227Z,1011.55
2019-06-08T05:18:53.175Z,1011.59
2019-06-08T05:19:53.164Z,1011.62
2019-06-08T05:20:53.151Z,1011.63
2019-06-08T05:21:53.149Z,1011.60
2019-06-08T05:22:53.125Z,1011.60
2019-06-08T05:23:58.590Z,1011.66
2019-06-08T05:24:54.105Z,1011.69
2019-06-08T05:25:53.102Z,1011.73
2019-06-08T05:26:53.085Z,1011.78
2019-06-08T05:27:53.083Z,1011.82
2019-06-08T05:28:53.114Z,1011.76
2019-06-08T05:29:53.055Z,1011.81
2019-06-08T05:30:53.050Z,1011.73
2019-06-08T05:31:53.042Z,1011.67
2019-06-08T05:32:53.046Z,1011.71
2019-06-08T05:33:53.017Z,1011.67
2019-06-08T05:34:53.002Z,1011.95
2019-06-08T05:35:52.985Z,1011.76
2019-06-08T05:36:52.972Z,1011.72
2019-06-08T05:37:52.990Z,1011.74
2019-06-08T05:38:53.013Z,1011.69
2019-06-08T05:39:52.951Z,1011.72
2019-06-08T05:40:52.936Z,1011.70
2019-06-08T05:41:52.922Z,1011.70
2019-06-08T05:42:53.105Z,1011.71
2019-06-08T05:43:52.897Z,1011.69
2019-06-08T05:44:52.893Z,1011.65
2019-06-08T05:45:52.914Z,1011.72
2019-06-08T05:46:52.879Z,1011.78
2019-06-08T05:47:52.863Z,1011.88
2019-06-08T05:48:52.855Z,1011.87
2019-06-08T05:49:52.843Z,1011.86
2019-06-08T05:51:03.409Z,1011.86
2019-06-08T05:51:53.855Z,1011.87
2019-06-08T05:52:52.806Z,1011.87
2019-06-08T05:53:52.820Z,1012.01
2019-06-08T05:54:52.788Z,1012.00
2019-06-08T05:55:52.771Z,1011.98
2019-06-08T05:56:52.764Z,1011.99
2019-06-08T05:57:52.754Z,1011.99
2019-06-08T05:58:52.785Z,1011.91
2019-06-08T05:59:52.728Z,1011.95
2019-06-08T06:00:52.726Z,1011.97
2019-06-08T06:01:52.716Z,1012.04
2019-06-08T06:02:52.700Z,1012.01
2019-06-08T06:03:52.736Z,1012.14
2019-06-08T06:04:53.973Z,1012.03
2019-06-08T06:05:52.667Z,1012.00
2019-06-08T06:06:52.660Z,1012.01
2019-06-08T06:07:52.685Z,1012.12
2019-06-08T06:08:52.636Z,1012.13
2019-06-08T06:09:52.652Z,1012.11
2019-06-08T06:10:52.612Z,1012.11
2019-06-08T06:11:52.599Z,1012.09
2019-06-08T06:12:52.599Z,1011.99
2019-06-08T06:13:52.577Z,1012.03
2019-06-08T06:14:52.608Z,1012.03
2019-06-08T06:15:52.562Z,1012.06
2019-06-08T06:16:52.554Z,1011.98
2019-06-08T06:17:52.535Z,1011.99
2019-06-08T06:18:52.553Z,1012.01
2019-06-08T06:19:52.519Z,1011.92
2019-06-08T06:20:52.509Z,1012.00
2019-06-08T06:21:52.498Z,1012.03
2019-06-08T06:22:52.750Z,1012.05
2019-06-08T06:23:52.493Z,1012.01
2019-06-08T06:24:52.464Z,1012.15
2019-06-08T06:25:52.457Z,1012.10
2019-06-08T06:26:52.477Z,1012.06
2019-06-08T06:27:52.429Z,1012.04
2019-06-08T06:28:52.425Z,1012.05
2019-06-08T06:29:52.435Z,1012.11
2019-06-08T06:30:52.421Z,1012.06
2019-06-08T06:31:52.395Z,1012.09
2019-06-08T06:32:52.434Z,1012.10
2019-06-08T06:33:52.530Z,1012.11
2019-06-08T06:34:52.371Z,1012.13
2019-06-08T06:35:52.390Z,1012.08
2019-06-08T06:36:52.337Z,1012.20
2019-06-08T06:37:52.327Z,1012.29
2019-06-08T06:38:52.407Z,1012.21
2019-06-08T06:39:52.452Z,1012.27
2019-06-08T06:40:52.304Z,1012.32
2019-06-08T06:41:52.346Z,1012.23
2019-06-08T06:42:52.408Z,1012.25
2019-06-08T06:43:52.364Z,1012.22
2019-06-08T06:44:52.487Z,1012.14
2019-06-08T06:45:52.298Z,1012.24
2019-06-08T06:46:52.527Z,1012.34
2019-06-08T06:47:52.688Z,1012.32
2019-06-08T06:48:52.604Z,1012.32
2019-06-08T06:49:52.594Z,1012.29
2019-06-08T06:50:52.565Z,1012.43
2019-06-08T06:51:52.755Z,1012.47
2019-06-08T06:52:52.961Z,1012.33
2019-06-08T06:53:53.309Z,1012.43
2019-06-08T06:54:53.268Z,1012.39
2019-06-08T06:55:53.368Z,1012.57
2019-06-08T06:56:52.152Z,1012.53
2019-06-08T06:57:53.446Z,1012.65
2019-06-08T06:58:52.103Z,1012.64
2019-06-08T06:59:52.096Z,1012.67
2019-06-08T07:00:52.077Z,1012.66
2019-06-08T07:01:55.628Z,1012.76
2019-06-08T07:02:53.931Z,1012.83
2019-06-08T07:03:52.217Z,1012.86
2019-06-08T07:04:52.273Z,1012.85
2019-06-08T07:05:52.050Z,1012.79
2019-06-08T07:06:52.298Z,1012.87
2019-06-08T07:07:52.464Z,1012.90
2019-06-08T07:08:52.434Z,1012.95
2019-06-08T07:09:52.768Z,1012.84
2019-06-08T07:10:53.525Z,1012.79
2019-06-08T07:11:52.986Z,1012.79
2019-06-08T07:12:52.832Z,1012.88
2019-06-08T07:13:52.887Z,1012.97
2019-06-08T07:14:53.037Z,1012.98
2019-06-08T07:15:55.898Z,1013.03
2019-06-08T07:16:54.007Z,1013.01
2019-06-08T07:17:53.563Z,1012.96
2019-06-08T07:18:52.623Z,1012.87
2019-06-08T07:19:52.637Z,1012.91
